McGill, Nevada
Current Conditions -  °F | °C
As of 7:24 AM on Thursday 18 Dec 2014 (Local Time) from KELY Reporting Station
Overcast Overcast  
Wind Chill: 12°   Ceiling: 1900
Heat Index: 22°   Visibility: 10mi
Dew Point: 19°   Wind: 9mph
Humidity: 89%   Direction: 160°SSE
Pressure: 30.13"   Gusts: NA
Location:  39.4°N, 114.78°W
Report Text: KELY 181524Z AUTO 16008KT 10SM BKN019 OVC065 M06/M07 A3013 RMK AO2 T10561072
Loading
Personal Weather Stations






























Interactive Weather Map New forecast layout! Learn more

10-Day Weather Forecast

Advertisements
Track Severe Weather on mobile